Terminal Aerodrome Forecast
Issued by NWS Mt. Holly, NJ

Home | Current Version | Previous Version | Text Only | Print | Product List | Glossary On
Versions: 1 2 3 4 5 6 7 8 9 10 11 12 13
000
FTUS41 KPHI 011735
TAFRDG
TAF
KRDG 011735Z 0118/0218 33004KT P6SM FEW050
     FM020600 VRB02KT 4SM BR SCT250
     FM021500 26005KT P6SM SCT050=

USA.gov is the U.S. government's official web portal to all federal, state and local government web resources and services.